Accueil
METAR-TAF:

METAR-TAF

Aéroports :

Olive Branch Airport

Olive Branch, Mississippi, États-Unis

latitude: 34-58-44N, longitude: 089-47-13W, altitude: 122 m

Observation

Le bulletin a été fait il y a 20 minutes, à 03:35 UTC
Vent 6 kt de sud
Température 20°C
Humidité 88%
Pression 1009 hPa
Visibilité: 16.1 km

METAR: KOLV 280335Z AUTO 18006KT 10SM 20/18 A2981 RMK A01

Heure: 22:55 (03:55 UTC)


TAF: absent

Observations et prévisions météorologiques de plus de 4000 aéroports (messages METAR et TAF).

Les stations disponibles sont représentées par des disques jaunes et rouges sur la carte.

Passer la souris dessus pour voir le nom de la station.

Cliquer dessus pour voir les observations et prévisions météorologiques.

Pour changer de carte: cliquez sur les boutons verts avec une croix noire pour zoomer, sur le bouton vert avec un tiret pour effectuer un zoom arrière, ou sur les flèches vertes pour les cartes adjacentes.


METAR-TAF: